sensor_id;sensor_type;location;lat;lon;timestamp;pressure;altitude;pressure_sealevel;temperature;humidity
47913;BME280;33676;51.006;17.180;2023-05-02T00:00:11;99961.70;;;11.20;75.46
47913;BME280;33676;51.006;17.180;2023-05-02T00:03:00;99961.73;;;11.20;75.66
47913;BME280;33676;51.006;17.180;2023-05-02T00:05:29;99958.73;;;11.18;75.59
47913;BME280;33676;51.006;17.180;2023-05-02T00:07:58;99957.72;;;11.18;75.80
47913;BME280;33676;51.006;17.180;2023-05-02T00:10:26;99956.96;;;11.16;75.93
47913;BME280;33676;51.006;17.180;2023-05-02T00:12:55;99952.95;;;11.14;75.95
47913;BME280;33676;51.006;17.180;2023-05-02T00:15:23;99952.71;;;11.11;76.02
47913;BME280;33676;51.006;17.180;2023-05-02T00:17:52;99947.23;;;11.07;76.13
47913;BME280;33676;51.006;17.180;2023-05-02T00:20:21;99946.45;;;11.06;76.15
47913;BME280;33676;51.006;17.180;2023-05-02T00:22:49;99949.31;;;11.06;76.08
47913;BME280;33676;51.006;17.180;2023-05-02T00:25:18;99945.77;;;11.04;76.14
47913;BME280;33676;51.006;17.180;2023-05-02T00:27:46;99943.77;;;11.03;76.18
47913;BME280;33676;51.006;17.180;2023-05-02T00:30:16;99942.98;;;11.00;76.08
47913;BME280;33676;51.006;17.180;2023-05-02T00:32:45;99941.52;;;10.96;76.07
47913;BME280;33676;51.006;17.180;2023-05-02T00:35:14;99944.60;;;10.93;76.12
47913;BME280;33676;51.006;17.180;2023-05-02T00:37:42;99940.36;;;10.90;76.30
47913;BME280;33676;51.006;17.180;2023-05-02T00:40:12;99936.13;;;10.88;76.39
47913;BME280;33676;51.006;17.180;2023-05-02T00:42:40;99934.90;;;10.86;76.50
47913;BME280;33676;51.006;17.180;2023-05-02T00:45:09;99934.23;;;10.84;76.54
47913;BME280;33676;51.006;17.180;2023-05-02T00:47:37;99932.73;;;10.81;76.57
47913;BME280;33676;51.006;17.180;2023-05-02T00:50:06;99933.77;;;10.79;76.73
47913;BME280;33676;51.006;17.180;2023-05-02T00:52:36;99932.02;;;10.77;76.68
47913;BME280;33676;51.006;17.180;2023-05-02T00:55:05;99928.13;;;10.75;76.88
47913;BME280;33676;51.006;17.180;2023-05-02T00:57:33;99925.35;;;10.73;76.91
47913;BME280;33676;51.006;17.180;2023-05-02T01:00:02;99921.73;;;10.72;77.09
47913;BME280;33676;51.006;17.180;2023-05-02T01:02:52;99919.64;;;10.73;77.35
47913;BME280;33676;51.006;17.180;2023-05-02T01:05:35;99921.67;;;10.73;77.88
47913;BME280;33676;51.006;17.180;2023-05-02T01:11:51;99923.69;;;10.72;77.86
47913;BME280;33676;51.006;17.180;2023-05-02T01:13:52;99927.96;;;10.71;77.89
47913;BME280;33676;51.006;17.180;2023-05-02T01:16:22;99931.67;;;10.69;77.94
47913;BME280;33676;51.006;17.180;2023-05-02T01:18:51;99926.17;;;10.65;77.99
47913;BME280;33676;51.006;17.180;2023-05-02T01:21:20;99924.15;;;10.62;78.04
47913;BME280;33676;51.006;17.180;2023-05-02T01:24:01;99924.65;;;10.58;78.06
47913;BME280;33676;51.006;17.180;2023-05-02T01:27:00;99935.63;;;10.54;78.11
47913;BME280;33676;51.006;17.180;2023-05-02T01:29:36;99931.77;;;10.50;78.14
47913;BME280;33676;51.006;17.180;2023-05-02T01:32:07;99936.90;;;10.48;78.28
47913;BME280;33676;51.006;17.180;2023-05-02T01:34:38;99932.89;;;10.45;78.51
47913;BME280;33676;51.006;17.180;2023-05-02T01:37:10;99934.69;;;10.43;78.61
47913;BME280;33676;51.006;17.180;2023-05-02T01:39:41;99938.73;;;10.42;78.57
47913;BME280;33676;51.006;17.180;2023-05-02T01:42:10;99940.64;;;10.42;78.72
47913;BME280;33676;51.006;17.180;2023-05-02T01:44:41;99940.77;;;10.43;79.03
47913;BME280;33676;51.006;17.180;2023-05-02T01:47:11;99938.48;;;10.44;79.09
47913;BME280;33676;51.006;17.180;2023-05-02T01:49:41;99935.89;;;10.45;79.32
47913;BME280;33676;51.006;17.180;2023-05-02T01:52:12;99936.70;;;10.48;79.45
47913;BME280;33676;51.006;17.180;2023-05-02T01:54:41;99936.15;;;10.50;79.69
47913;BME280;33676;51.006;17.180;2023-05-02T01:57:11;99934.68;;;10.53;79.80
47913;BME280;33676;51.006;17.180;2023-05-02T01:59:40;99940.36;;;10.56;79.92
47913;BME280;33676;51.006;17.180;2023-05-02T02:02:11;99940.23;;;10.60;80.06
47913;BME280;33676;51.006;17.180;2023-05-02T02:04:41;99935.61;;;10.63;80.00
47913;BME280;33676;51.006;17.180;2023-05-02T02:07:12;99934.88;;;10.66;80.15
47913;BME280;33676;51.006;17.180;2023-05-02T02:09:41;99934.81;;;10.68;80.27
47913;BME280;33676;51.006;17.180;2023-05-02T02:12:18;99930.08;;;10.71;80.32
47913;BME280;33676;51.006;17.180;2023-05-02T02:14:59;99934.58;;;10.74;80.42
47913;BME280;33676;51.006;17.180;2023-05-02T02:18:01;99937.77;;;10.75;80.52
47913;BME280;33676;51.006;17.180;2023-05-02T02:20:33;99942.55;;;10.79;80.54
47913;BME280;33676;51.006;17.180;2023-05-02T02:23:06;99945.24;;;10.79;80.56
47913;BME280;33676;51.006;17.180;2023-05-02T02:25:36;99946.38;;;10.81;80.48
47913;BME280;33676;51.006;17.180;2023-05-02T02:28:06;99949.80;;;10.81;80.51
47913;BME280;33676;51.006;17.180;2023-05-02T02:30:35;99955.31;;;10.83;80.59
47913;BME280;33676;51.006;17.180;2023-05-02T02:33:03;99956.78;;;10.84;80.70
47913;BME280;33676;51.006;17.180;2023-05-02T02:35:37;99958.11;;;10.85;80.49
47913;BME280;33676;51.006;17.180;2023-05-02T02:40:50;99966.59;;;10.82;80.63
47913;BME280;33676;51.006;17.180;2023-05-02T02:43:59;99970.89;;;10.80;80.73
47913;BME280;33676;51.006;17.180;2023-05-02T02:47:08;99969.98;;;10.79;80.70
47913;BME280;33676;51.006;17.180;2023-05-02T02:49:48;99972.09;;;10.78;80.96
47913;BME280;33676;51.006;17.180;2023-05-02T02:56:25;99983.19;;;10.86;81.21
47913;BME280;33676;51.006;17.180;2023-05-02T02:59:25;99988.56;;;10.84;81.35
47913;BME280;33676;51.006;17.180;2023-05-02T03:02:05;99998.59;;;10.86;81.44
47913;BME280;33676;51.006;17.180;2023-05-02T03:04:42;100003.38;;;10.87;81.48
47913;BME280;33676;51.006;17.180;2023-05-02T03:12:10;100008.92;;;10.85;81.54
47913;BME280;33676;51.006;17.180;2023-05-02T03:14:39;100015.09;;;10.81;81.65
47913;BME280;33676;51.006;17.180;2023-05-02T03:17:08;100015.80;;;10.80;81.79
47913;BME280;33676;51.006;17.180;2023-05-02T03:19:37;100021.78;;;10.82;81.96
47913;BME280;33676;51.006;17.180;2023-05-02T03:22:06;100020.66;;;10.83;82.05
47913;BME280;33676;51.006;17.180;2023-05-02T03:24:34;100019.80;;;10.85;82.13
47913;BME280;33676;51.006;17.180;2023-05-02T03:27:02;100019.90;;;10.88;82.16
47913;BME280;33676;51.006;17.180;2023-05-02T03:29:31;100024.38;;;10.92;82.16
47913;BME280;33676;51.006;17.180;2023-05-02T03:32:00;100031.16;;;10.97;82.30
47913;BME280;33676;51.006;17.180;2023-05-02T03:34:28;100036.29;;;11.03;82.41
47913;BME280;33676;51.006;17.180;2023-05-02T03:36:57;100035.45;;;11.07;82.34
47913;BME280;33676;51.006;17.180;2023-05-02T03:39:25;100032.00;;;11.12;82.37
47913;BME280;33676;51.006;17.180;2023-05-02T03:41:53;100028.58;;;11.18;82.39
47913;BME280;33676;51.006;17.180;2023-05-02T03:44:22;100030.13;;;11.24;82.27
47913;BME280;33676;51.006;17.180;2023-05-02T03:46:50;100034.32;;;11.31;82.35
47913;BME280;33676;51.006;17.180;2023-05-02T03:49:19;100041.95;;;11.38;82.32
47913;BME280;33676;51.006;17.180;2023-05-02T03:51:47;100048.73;;;11.44;82.33
47913;BME280;33676;51.006;17.180;2023-05-02T03:54:16;100046.77;;;11.50;82.38
47913;BME280;33676;51.006;17.180;2023-05-02T03:56:44;100051.34;;;11.56;82.43
47913;BME280;33676;51.006;17.180;2023-05-02T03:59:14;100054.56;;;11.62;82.38
47913;BME280;33676;51.006;17.180;2023-05-02T04:01:42;100056.48;;;11.68;82.40
47913;BME280;33676;51.006;17.180;2023-05-02T04:04:10;100063.48;;;11.74;82.28
47913;BME280;33676;51.006;17.180;2023-05-02T04:06:39;100067.32;;;11.80;82.30
47913;BME280;33676;51.006;17.180;2023-05-02T04:09:07;100071.83;;;11.87;82.22
47913;BME280;33676;51.006;17.180;2023-05-02T04:20:01;100090.09;;;12.20;82.17
47913;BME280;33676;51.006;17.180;2023-05-02T04:22:33;100093.73;;;12.25;82.02
47913;BME280;33676;51.006;17.180;2023-05-02T04:25:01;100095.41;;;12.30;82.04
47913;BME280;33676;51.006;17.180;2023-05-02T04:27:29;100098.58;;;12.35;82.07
47913;BME280;33676;51.006;17.180;2023-05-02T04:29:58;100105.09;;;12.39;82.03
47913;BME280;33676;51.006;17.180;2023-05-02T04:32:27;100111.41;;;12.43;82.18
47913;BME280;33676;51.006;17.180;2023-05-02T04:34:56;100113.73;;;12.46;82.34
47913;BME280;33676;51.006;17.180;2023-05-02T04:37:24;100119.84;;;12.49;82.34
47913;BME280;33676;51.006;17.180;2023-05-02T04:39:53;100125.27;;;12.50;82.53
47913;BME280;33676;51.006;17.180;2023-05-02T04:42:22;100128.39;;;12.51;82.74
47913;BME280;33676;51.006;17.180;2023-05-02T04:44:51;100131.55;;;12.51;82.92
47913;BME280;33676;51.006;17.180;2023-05-02T04:47:19;100130.75;;;12.50;82.94
47913;BME280;33676;51.006;17.180;2023-05-02T04:49:48;100130.75;;;12.50;83.35
47913;BME280;33676;51.006;17.180;2023-05-02T04:52:16;100135.70;;;12.49;83.39
47913;BME280;33676;51.006;17.180;2023-05-02T04:54:45;100140.08;;;12.49;83.55
47913;BME280;33676;51.006;17.180;2023-05-02T04:57:14;100137.20;;;12.50;83.54
47913;BME280;33676;51.006;17.180;2023-05-02T04:59:42;100138.34;;;12.51;83.84
47913;BME280;33676;51.006;17.180;2023-05-02T05:02:11;100145.78;;;12.52;84.14
47913;BME280;33676;51.006;17.180;2023-05-02T05:04:40;100145.98;;;12.52;84.38
47913;BME280;33676;51.006;17.180;2023-05-02T05:07:08;100153.59;;;12.51;84.69
47913;BME280;33676;51.006;17.180;2023-05-02T05:09:37;100156.05;;;12.49;85.11
47913;BME280;33676;51.006;17.180;2023-05-02T05:12:05;100160.91;;;12.46;85.38
47913;BME280;33676;51.006;17.180;2023-05-02T05:14:34;100162.12;;;12.43;85.68
47913;BME280;33676;51.006;17.180;2023-05-02T05:17:03;100163.48;;;12.39;85.95
47913;BME280;33676;51.006;17.180;2023-05-02T05:30:37;100175.20;;;12.75;86.25
47913;BME280;33676;51.006;17.180;2023-05-02T05:33:06;100176.75;;;12.79;86.28
47913;BME280;33676;51.006;17.180;2023-05-02T05:35:34;100175.45;;;12.78;86.59
47913;BME280;33676;51.006;17.180;2023-05-02T05:38:03;100178.85;;;12.77;86.75
47913;BME280;33676;51.006;17.180;2023-05-02T05:40:31;100185.61;;;12.78;87.01
47913;BME280;33676;51.006;17.180;2023-05-02T05:43:00;100186.77;;;12.77;87.13
47913;BME280;33676;51.006;17.180;2023-05-02T05:45:28;100195.41;;;12.74;87.43
47913;BME280;33676;51.006;17.180;2023-05-02T05:47:56;100199.14;;;12.74;87.54
47913;BME280;33676;51.006;17.180;2023-05-02T05:50:25;100206.51;;;12.74;87.78
47913;BME280;33676;51.006;17.180;2023-05-02T05:52:54;100205.33;;;12.74;87.92
47913;BME280;33676;51.006;17.180;2023-05-02T05:55:22;100203.68;;;12.74;88.00
47913;BME280;33676;51.006;17.180;2023-05-02T05:57:51;100208.44;;;12.78;88.09
47913;BME280;33676;51.006;17.180;2023-05-02T06:00:19;100208.39;;;12.82;88.28
47913;BME280;33676;51.006;17.180;2023-05-02T06:02:47;100207.85;;;12.88;88.45
47913;BME280;33676;51.006;17.180;2023-05-02T06:05:16;100208.94;;;12.94;88.60
47913;BME280;33676;51.006;17.180;2023-05-02T06:07:44;100206.52;;;13.01;88.86
47913;BME280;33676;51.006;17.180;2023-05-02T06:10:13;100208.63;;;13.09;88.87
47913;BME280;33676;51.006;17.180;2023-05-02T06:12:41;100210.02;;;13.15;89.13
47913;BME280;33676;51.006;17.180;2023-05-02T06:15:10;100212.11;;;13.23;89.35
47913;BME280;33676;51.006;17.180;2023-05-02T06:17:38;100216.58;;;13.34;89.51
47913;BME280;33676;51.006;17.180;2023-05-02T06:20:07;100221.52;;;13.45;89.90
47913;BME280;33676;51.006;17.180;2023-05-02T06:22:36;100218.86;;;13.53;89.81
47913;BME280;33676;51.006;17.180;2023-05-02T06:25:05;100224.60;;;13.60;89.48
47913;BME280;33676;51.006;17.180;2023-05-02T06:27:34;100224.11;;;13.68;89.71
47913;BME280;33676;51.006;17.180;2023-05-02T06:30:04;100228.38;;;13.77;89.57
47913;BME280;33676;51.006;17.180;2023-05-02T06:32:33;100232.15;;;13.84;89.39
47913;BME280;33676;51.006;17.180;2023-05-02T06:35:01;100235.36;;;13.89;89.15
47913;BME280;33676;51.006;17.180;2023-05-02T06:37:33;100244.17;;;13.95;89.08
47913;BME280;33676;51.006;17.180;2023-05-02T06:46:01;100258.73;;;14.12;88.96
47913;BME280;33676;51.006;17.180;2023-05-02T06:48:30;100258.42;;;14.17;88.76
47913;BME280;33676;51.006;17.180;2023-05-02T06:50:58;100258.58;;;14.23;88.72
47913;BME280;33676;51.006;17.180;2023-05-02T06:53:27;100260.17;;;14.28;88.46
47913;BME280;33676;51.006;17.180;2023-05-02T06:55:57;100263.32;;;14.34;88.49
47913;BME280;33676;51.006;17.180;2023-05-02T06:58:25;100264.64;;;14.41;88.46
47913;BME280;33676;51.006;17.180;2023-05-02T07:00:54;100270.23;;;14.50;88.64
47913;BME280;33676;51.006;17.180;2023-05-02T07:03:22;100274.67;;;14.61;88.80
47913;BME280;33676;51.006;17.180;2023-05-02T07:05:51;100277.89;;;14.70;88.48
47913;BME280;33676;51.006;17.180;2023-05-02T07:08:43;100280.73;;;14.77;88.14
47913;BME280;33676;51.006;17.180;2023-05-02T07:11:11;100281.65;;;14.80;88.10
47913;BME280;33676;51.006;17.180;2023-05-02T07:13:40;100284.84;;;14.82;87.94
47913;BME280;33676;51.006;17.180;2023-05-02T07:16:08;100284.88;;;14.85;87.98
47913;BME280;33676;51.006;17.180;2023-05-02T07:18:37;100289.58;;;14.89;87.92
47913;BME280;33676;51.006;17.180;2023-05-02T07:21:05;100288.85;;;14.92;87.90
47913;BME280;33676;51.006;17.180;2023-05-02T07:23:34;100293.50;;;14.94;87.81
47913;BME280;33676;51.006;17.180;2023-05-02T07:26:02;100297.62;;;14.96;87.58
47913;BME280;33676;51.006;17.180;2023-05-02T07:28:33;100299.02;;;14.99;87.78
47913;BME280;33676;51.006;17.180;2023-05-02T07:31:02;100299.24;;;15.02;87.89
47913;BME280;33676;51.006;17.180;2023-05-02T07:33:30;100301.92;;;15.06;87.99
47913;BME280;33676;51.006;17.180;2023-05-02T07:36:00;100303.98;;;15.09;87.91
47913;BME280;33676;51.006;17.180;2023-05-02T07:38:29;100307.97;;;15.13;88.09
47913;BME280;33676;51.006;17.180;2023-05-02T07:40:59;100304.05;;;15.14;87.89
47913;BME280;33676;51.006;17.180;2023-05-02T07:43:28;100308.23;;;15.16;88.00
47913;BME280;33676;51.006;17.180;2023-05-02T07:45:57;100310.37;;;15.18;88.13
47913;BME280;33676;51.006;17.180;2023-05-02T07:48:25;100307.13;;;15.20;88.31
47913;BME280;33676;51.006;17.180;2023-05-02T07:50:55;100308.48;;;15.25;88.20
47913;BME280;33676;51.006;17.180;2023-05-02T07:53:23;100303.86;;;15.31;88.23
47913;BME280;33676;51.006;17.180;2023-05-02T07:55:52;100308.49;;;15.37;88.22
47913;BME280;33676;51.006;17.180;2023-05-02T07:58:20;100313.92;;;15.45;88.01
47913;BME280;33676;51.006;17.180;2023-05-02T08:00:48;100319.03;;;15.54;87.97
47913;BME280;33676;51.006;17.180;2023-05-02T08:03:17;100317.73;;;15.67;88.05
47913;BME280;33676;51.006;17.180;2023-05-02T08:05:46;100320.46;;;15.80;87.98
47913;BME280;33676;51.006;17.180;2023-05-02T08:08:15;100324.71;;;15.91;87.71
47913;BME280;33676;51.006;17.180;2023-05-02T08:10:46;100331.00;;;15.99;87.32
47913;BME280;33676;51.006;17.180;2023-05-02T08:13:15;100333.22;;;16.08;87.18
47913;BME280;33676;51.006;17.180;2023-05-02T08:15:43;100335.33;;;16.18;87.07
47913;BME280;33676;51.006;17.180;2023-05-02T08:18:12;100334.70;;;16.26;86.54
47913;BME280;33676;51.006;17.180;2023-05-02T08:20:42;100332.77;;;16.35;86.52
47913;BME280;33676;51.006;17.180;2023-05-02T08:23:10;100331.98;;;16.44;86.47
47913;BME280;33676;51.006;17.180;2023-05-02T08:25:39;100327.54;;;16.53;86.36
47913;BME280;33676;51.006;17.180;2023-05-02T08:28:07;100329.33;;;16.65;86.48
47913;BME280;33676;51.006;17.180;2023-05-02T08:30:47;100340.59;;;16.78;86.53
47913;BME280;33676;51.006;17.180;2023-05-02T08:33:16;100341.34;;;16.93;86.39
47913;BME280;33676;51.006;17.180;2023-05-02T08:35:45;100346.41;;;17.01;86.09
47913;BME280;33676;51.006;17.180;2023-05-02T08:38:13;100350.49;;;17.11;86.05
47913;BME280;33676;51.006;17.180;2023-05-02T08:40:42;100354.02;;;17.21;85.81
47913;BME280;33676;51.006;17.180;2023-05-02T08:43:11;100357.12;;;17.29;85.50
47913;BME280;33676;51.006;17.180;2023-05-02T08:45:43;100356.13;;;17.38;85.43
47913;BME280;33676;51.006;17.180;2023-05-02T08:48:12;100362.16;;;17.48;85.38
47913;BME280;33676;51.006;17.180;2023-05-02T08:50:44;100364.94;;;17.57;85.08
47913;BME280;33676;51.006;17.180;2023-05-02T08:53:16;100368.98;;;17.66;84.73
47913;BME280;33676;51.006;17.180;2023-05-02T09:05:05;100373.48;;;17.94;84.28
47913;BME280;33676;51.006;17.180;2023-05-02T09:07:45;100381.05;;;17.95;83.68
47913;BME280;33676;51.006;17.180;2023-05-02T09:10:16;100383.92;;;17.99;83.54
47913;BME280;33676;51.006;17.180;2023-05-02T09:12:45;100386.04;;;18.03;83.47
47913;BME280;33676;51.006;17.180;2023-05-02T09:15:15;100387.05;;;18.06;83.41
47913;BME280;33676;51.006;17.180;2023-05-02T09:17:48;100389.08;;;18.15;83.37
47913;BME280;33676;51.006;17.180;2023-05-02T09:20:16;100390.45;;;18.21;83.39
47913;BME280;33676;51.006;17.180;2023-05-02T09:22:50;100396.18;;;18.27;83.25
47913;BME280;33676;51.006;17.180;2023-05-02T09:25:19;100401.89;;;18.36;83.20
47913;BME280;33676;51.006;17.180;2023-05-02T09:27:51;100403.35;;;18.43;82.84
47913;BME280;33676;51.006;17.180;2023-05-02T09:30:22;100401.58;;;18.53;82.71
47913;BME280;33676;51.006;17.180;2023-05-02T09:32:52;100403.52;;;18.63;82.00
47913;BME280;33676;51.006;17.180;2023-05-02T09:35:23;100408.60;;;18.70;81.59
47913;BME280;33676;51.006;17.180;2023-05-02T09:37:56;100413.35;;;18.80;81.45
47913;BME280;33676;51.006;17.180;2023-05-02T09:40:26;100414.39;;;18.88;80.99
47913;BME280;33676;51.006;17.180;2023-05-02T09:42:57;100419.02;;;18.94;80.70
47913;BME280;33676;51.006;17.180;2023-05-02T09:45:25;100423.86;;;19.00;80.27
47913;BME280;33676;51.006;17.180;2023-05-02T09:47:54;100422.73;;;19.04;79.88
47913;BME280;33676;51.006;17.180;2023-05-02T09:50:36;100425.31;;;19.08;79.79
47913;BME280;33676;51.006;17.180;2023-05-02T09:53:07;100428.21;;;19.15;79.90
47913;BME280;33676;51.006;17.180;2023-05-02T09:55:37;100427.75;;;19.27;80.18
47913;BME280;33676;51.006;17.180;2023-05-02T09:58:05;100433.13;;;19.35;79.87
47913;BME280;33676;51.006;17.180;2023-05-02T10:00:43;100432.05;;;19.42;79.55
47913;BME280;33676;51.006;17.180;2023-05-02T10:03:15;100435.02;;;19.52;79.51
47913;BME280;33676;51.006;17.180;2023-05-02T10:05:45;100437.48;;;19.63;79.24
47913;BME280;33676;51.006;17.180;2023-05-02T10:08:18;100438.18;;;19.74;78.62
47913;BME280;33676;51.006;17.180;2023-05-02T10:10:57;100436.83;;;19.86;78.69
47913;BME280;33676;51.006;17.180;2023-05-02T10:13:26;100437.23;;;20.01;78.41
47913;BME280;33676;51.006;17.180;2023-05-02T10:16:04;100437.91;;;20.10;77.65
47913;BME280;33676;51.006;17.180;2023-05-02T10:18:57;100436.98;;;20.18;77.20
47913;BME280;33676;51.006;17.180;2023-05-02T10:21:30;100437.58;;;20.31;77.33
47913;BME280;33676;51.006;17.180;2023-05-02T10:24:00;100438.26;;;20.41;76.59
47913;BME280;33676;51.006;17.180;2023-05-02T10:26:33;100437.63;;;20.44;76.21
47913;BME280;33676;51.006;17.180;2023-05-02T10:29:02;100436.08;;;20.50;76.06
47913;BME280;33676;51.006;17.180;2023-05-02T10:31:33;100433.67;;;20.60;76.08
47913;BME280;33676;51.006;17.180;2023-05-02T10:34:06;100437.39;;;20.72;75.87
47913;BME280;33676;51.006;17.180;2023-05-02T10:36:38;100437.93;;;20.82;75.75
47913;BME280;33676;51.006;17.180;2023-05-02T10:39:06;100437.02;;;20.93;75.83
47913;BME280;33676;51.006;17.180;2023-05-02T10:41:37;100440.11;;;21.04;75.63
47913;BME280;33676;51.006;17.180;2023-05-02T10:44:06;100440.90;;;21.11;75.43
47913;BME280;33676;51.006;17.180;2023-05-02T10:46:38;100441.10;;;21.26;75.60
47913;BME280;33676;51.006;17.180;2023-05-02T10:49:12;100443.48;;;21.28;74.81
47913;BME280;33676;51.006;17.180;2023-05-02T10:51:42;100444.93;;;21.31;74.99
47913;BME280;33676;51.006;17.180;2023-05-02T10:57:05;100443.81;;;21.40;74.44
47913;BME280;33676;51.006;17.180;2023-05-02T10:59:37;100445.69;;;21.36;74.14
47913;BME280;33676;51.006;17.180;2023-05-02T11:05:06;100446.23;;;21.43;73.56
47913;BME280;33676;51.006;17.180;2023-05-02T11:07:36;100444.36;;;21.44;73.40
47913;BME280;33676;51.006;17.180;2023-05-02T11:18:12;100454.77;;;21.43;73.00
47913;BME280;33676;51.006;17.180;2023-05-02T11:20:43;100460.52;;;21.40;72.10
47913;BME280;33676;51.006;17.180;2023-05-02T11:25:46;100459.94;;;21.23;71.46
47913;BME280;33676;51.006;17.180;2023-05-02T11:31:55;100467.52;;;21.19;71.74
47913;BME280;33676;51.006;17.180;2023-05-02T11:34:02;100471.16;;;21.12;71.18
47913;BME280;33676;51.006;17.180;2023-05-02T11:36:33;100470.44;;;21.08;71.10
47913;BME280;33676;51.006;17.180;2023-05-02T11:39:03;100467.30;;;21.10;71.11
47913;BME280;33676;51.006;17.180;2023-05-02T11:41:42;100471.50;;;21.11;71.11
47913;BME280;33676;51.006;17.180;2023-05-02T11:44:11;100479.49;;;21.08;70.64
47913;BME280;33676;51.006;17.180;2023-05-02T11:46:39;100480.29;;;21.06;70.60
47913;BME280;33676;51.006;17.180;2023-05-02T11:49:08;100485.40;;;21.10;70.77
47913;BME280;33676;51.006;17.180;2023-05-02T11:51:39;100485.10;;;21.14;70.56
47913;BME280;33676;51.006;17.180;2023-05-02T11:54:08;100484.39;;;21.19;70.54
47913;BME280;33676;51.006;17.180;2023-05-02T11:56:37;100482.60;;;21.24;70.75
47913;BME280;33676;51.006;17.180;2023-05-02T11:59:05;100485.11;;;21.32;70.80
47913;BME280;33676;51.006;17.180;2023-05-02T12:01:35;100487.38;;;21.41;70.42
47913;BME280;33676;51.006;17.180;2023-05-02T12:04:07;100486.48;;;21.49;70.41
47913;BME280;33676;51.006;17.180;2023-05-02T12:06:35;100483.67;;;21.59;70.32
47913;BME280;33676;51.006;17.180;2023-05-02T12:09:13;100484.32;;;21.64;70.02
47913;BME280;33676;51.006;17.180;2023-05-02T12:11:52;100479.06;;;21.70;69.75
47913;BME280;33676;51.006;17.180;2023-05-02T12:14:30;100476.55;;;21.82;70.06
47913;BME280;33676;51.006;17.180;2023-05-02T12:17:02;100475.75;;;21.94;70.20
47913;BME280;33676;51.006;17.180;2023-05-02T12:19:31;100478.94;;;22.12;70.14
47913;BME280;33676;51.006;17.180;2023-05-02T12:22:00;100473.42;;;22.26;69.97
47913;BME280;33676;51.006;17.180;2023-05-02T12:24:28;100476.67;;;22.41;70.01
47913;BME280;33676;51.006;17.180;2023-05-02T12:27:10;100478.95;;;22.53;69.45
47913;BME280;33676;51.006;17.180;2023-05-02T12:29:41;100477.83;;;22.66;69.02
47913;BME280;33676;51.006;17.180;2023-05-02T12:32:11;100479.55;;;22.74;68.53
47913;BME280;33676;51.006;17.180;2023-05-02T12:34:40;100481.13;;;22.80;68.59
47913;BME280;33676;51.006;17.180;2023-05-02T12:37:09;100481.39;;;22.93;68.96
47913;BME280;33676;51.006;17.180;2023-05-02T12:39:40;100482.61;;;23.08;68.53
47913;BME280;33676;51.006;17.180;2023-05-02T12:42:13;100483.86;;;23.17;67.94
47913;BME280;33676;51.006;17.180;2023-05-02T12:44:44;100485.48;;;23.26;67.98
47913;BME280;33676;51.006;17.180;2023-05-02T12:47:15;100484.73;;;23.42;68.16
47913;BME280;33676;51.006;17.180;2023-05-02T12:50:02;100489.60;;;23.55;67.49
47913;BME280;33676;51.006;17.180;2023-05-02T12:52:49;100490.18;;;23.56;66.57
47913;BME280;33676;51.006;17.180;2023-05-02T12:55:24;100493.32;;;23.47;65.71
47913;BME280;33676;51.006;17.180;2023-05-02T12:58:20;100496.48;;;23.43;65.59
47913;BME280;33676;51.006;17.180;2023-05-02T13:00:52;100497.95;;;23.40;65.28
47913;BME280;33676;51.006;17.180;2023-05-02T13:03:21;100502.19;;;23.39;65.10
47913;BME280;33676;51.006;17.180;2023-05-02T13:05:53;100497.79;;;23.44;65.26
47913;BME280;33676;51.006;17.180;2023-05-02T13:08:21;100497.48;;;23.52;65.01
47913;BME280;33676;51.006;17.180;2023-05-02T13:10:51;100497.96;;;23.51;64.57
47913;BME280;33676;51.006;17.180;2023-05-02T13:13:19;100511.17;;;23.41;63.59
47913;BME280;33676;51.006;17.180;2023-05-02T13:15:49;100519.80;;;23.17;62.61
47913;BME280;33676;51.006;17.180;2023-05-02T13:20:19;100527.67;;;22.52;61.83
47913;BME280;33676;51.006;17.180;2023-05-02T13:22:47;100527.45;;;22.11;62.07
47913;BME280;33676;51.006;17.180;2023-05-02T13:25:16;100526.27;;;21.83;62.49
47913;BME280;33676;51.006;17.180;2023-05-02T13:27:44;100526.92;;;21.63;62.66
47913;BME280;33676;51.006;17.180;2023-05-02T13:30:13;100527.89;;;21.45;62.76
47913;BME280;33676;51.006;17.180;2023-05-02T13:32:43;100528.34;;;21.32;62.90
47913;BME280;33676;51.006;17.180;2023-05-02T13:35:11;100530.51;;;21.22;62.81
47913;BME280;33676;51.006;17.180;2023-05-02T13:37:41;100525.63;;;21.19;62.89
47913;BME280;33676;51.006;17.180;2023-05-02T13:40:10;100524.59;;;21.22;63.00
47913;BME280;33676;51.006;17.180;2023-05-02T13:42:38;100523.26;;;21.22;62.90
47913;BME280;33676;51.006;17.180;2023-05-02T13:45:07;100522.82;;;21.16;62.88
47913;BME280;33676;51.006;17.180;2023-05-02T13:47:36;100524.98;;;21.12;63.05
47913;BME280;33676;51.006;17.180;2023-05-02T13:50:08;100525.59;;;21.09;63.07
47913;BME280;33676;51.006;17.180;2023-05-02T13:52:36;100528.04;;;21.03;63.11
47913;BME280;33676;51.006;17.180;2023-05-02T13:55:05;100528.36;;;20.96;63.19
47913;BME280;33676;51.006;17.180;2023-05-02T13:57:34;100529.80;;;20.88;63.20
47913;BME280;33676;51.006;17.180;2023-05-02T14:00:03;100528.05;;;20.82;63.33
47913;BME280;33676;51.006;17.180;2023-05-02T14:02:33;100524.26;;;20.77;63.47
47913;BME280;33676;51.006;17.180;2023-05-02T14:05:01;100521.70;;;20.67;63.42
47913;BME280;33676;51.006;17.180;2023-05-02T14:07:30;100523.02;;;20.57;63.19
47913;BME280;33676;51.006;17.180;2023-05-02T14:09:59;100526.56;;;20.49;63.35
47913;BME280;33676;51.006;17.180;2023-05-02T14:12:28;100524.12;;;20.46;63.49